Aeroporto :
LOGIN :

Iscrizione | Disclaimer

   EN    FR    IT 

 










Sommario :    VFR   VFR Marginale   IFR   IFR Intensivo   IFR Molto Intensivo
Visibilità : 
Base nubi : 
>= 8 km
>= 3000ft
5 / 8 km
1000 / 3000 ft
1500m / 5 km
500 / 1000 ft
800 / 1500m
200 / 500 ft
< 800m
< 200 ft
Simboli :   Temporali  Nebbia  Neve Forte  Precipitazioni Forti  Vento > 20 kt
SIGMETs :   Varie  Temporali  Ghiacco  Turbolenza  Onda orograficha  Ceneri Vulcaniche






- Altitudine del aeroporto : 319 ft


EIME - Casement Air Base

ULTIMO METAR :
  • 180300Z 22017KT 9999 FEW018 SCT035 04/01 Q1012

METARs OBSOLETI :
  • 180200Z 23019KT 9999 FEW018 SCT045 03/01 Q1012
  • 180100Z 23017KT 9999 FEW018 SCT030 03/01 Q1012

TAF TAF EIME
Valido dal 18 a 03 ore il 18 a 12 ore UTC


180200Z 1803/1812 23017KT 9999 FEW015 SCT030
TEMPO 1803/1812 24020G37KT
TEMPO 1803/1812 -SHRA SCT012 SCT018CB
PROB30
TEMPO 1810/1812 26025G40KT 4000 SHRAGS



MetMap, La meteo Aeronautica in un colpo d'occhio ! - Copyright ORBIFLY Dicembre 2007 - Disclaimer

ORBIFLY MET'MAP TEAM :

Programmazione e sviluppo : Alexandra Zaïnal
Concezione : Baudouin d'Aumeries
Aiuto per la programmazione : Marc-Olivier Méhu
Supporto tecnico e logistico : Manuel Goepfert
Aiuto per la traduzione : Arnaldo La Scala

Contatto : metmap@orbifly.com




FONTI E CREDITI :

   NOAA